KMVE/MVE METAR and TAF weather

Enter ICAO airport designator
Station Type Date Time Source
KMVE METAR 2018/12/13 23:35 UTC NOAA

KMVE 132335Z AUTO 29004KT 10SM CLR 01/M03 A3012 RMK AO2


Station Type Date Time Source
KMVE Decoded METAR 2018/12/13 23:35 UTC NOAA

Montevideo, Montevideo-Chippewa County Airport, MN, United States (KMVE) 44-58N 095-43W
Dec 13, 2018 - 06:35 PM EST / 2018.12.13 2335 UTC
Wind: from the WNW (290 degrees) at 5 MPH (4 KT):0
Visibility: 10 mile(s):0
Sky conditions: clear
Temperature: 33 F (1 C)
Windchill: 28 F (-2 C):1
Dew Point: 26 F (-3 C)
Relative Humidity: 74%
Pressure (altimeter): 30.12 in. Hg (1019 hPa)
ob: KMVE 132335Z AUTO 29004KT 10SM CLR 01/M03 A3012 RMK AO2
cycle: 23

Station Type Date Time Source
KMVE TAF UTC NOAA

Error!


Example: see airport list